Flight Track Log - Related Links

Times and Time Zones

All times are in EDT time to prevent confusion due to time zone crossing. See the UPS1331 flight status page for this flight to view local times or setup timezone preferences in your user account.

Time Position Orientation Groundspeed Altitude Reporting Facility
EDT Latitude Longitude Course Direction KTS MPH feet Rate Location/Type
Fri 10:29:01 PM 25.7981 -80.2792 81° East 154 177 700  Level Miami Center
Fri 10:29:56 PM 25.8056 -80.2261 81° East 209 241 2,400 2,054 Climbing Miami Center
Fri 10:30:52 PM 25.8092 -80.1594 87° East 262 302 4,500 2,081 Climbing Miami Center
Fri 10:32:00 PM 25.8786 -80.1289 22° Northeast 265 305 6,700 1,565 Climbing Miami Center
Fri 10:32:24 PM 25.9097 -80.1392 343° North 271 312 6,900 1,182 Climbing Miami Center
Fri 10:33:06 PM 25.9486 -80.1817 316° Northwest 276 318 8,000 1,869 Climbing Miami Center
Fri 10:33:25 PM 25.9692 -80.1917 336° Northwest 278 320 8,800 2,516 Climbing Miami Center
Fri 10:34:08 PM 26.0122 -80.2367 317° Northwest 296 341 10,600 2,276 Climbing Miami Center
Fri 10:34:23 PM 26.0328 -80.2489 332° Northwest 314 361 11,000 2,270 Climbing Miami Center
Fri 10:35:22 PM 26.1106 -80.3181 321° Northwest 352 405 13,400 2,824 Climbing Miami Center
Fri 10:36:22 PM 26.1942 -80.3992 319° Northwest 377 434 16,600 2,975 Climbing Miami Center
Fri 10:37:23 PM 26.2844 -80.4597 329° Northwest 405 466 19,400 3,025 Climbing Miami Center
Fri 10:38:23 PM 26.4083 -80.5169 338° Northwest 426 490 22,700 2,826 Climbing Miami Center
Fri 10:39:24 PM 26.5097 -80.5642 337° Northwest 439 505 25,100 2,420 Climbing Miami Center
Fri 10:40:22 PM 26.6394 -80.6264 337° Northwest 450 518 27,500 2,339 Climbing Miami Center
Fri 10:41:22 PM 26.7447 -80.6786 336° Northwest 455 524 29,700 1,230 Climbing Miami Center
Fri 10:42:24 PM 26.8647 -80.7244 341° North 455 524 30,000 400 Climbing Miami Center
Fri 10:43:22 PM 26.9844 -80.7681 342° North 455 524 30,500 504 Climbing Miami Center
Fri 10:44:23 PM 27.1044 -80.8117 342° North 449 517 31,000 250 Climbing Miami Center
Fri 10:45:22 PM 27.2222 -80.8531 343° North 444 511 31,000  Level Miami Center
Fri 10:46:22 PM 27.3422 -80.8947 343° North 444 511 31,000  Level Miami Center
Fri 10:47:23 PM 27.4578 -80.9408 341° North 439 505 31,000  Level Miami Center
Fri 10:48:22 PM 27.5778 -80.9825 343° North 439 505 31,000  Level Miami Center
Fri 10:49:23 PM 27.6975 -81.0244 343° North 439 505 31,000  Level Miami Center
Fri 10:50:24 PM 27.8069 -81.0658 342° North 446 513 31,000  Level Miami Center
Fri 10:51:22 PM 27.9369 -81.1153 341° North 451 519 31,000  Level Miami Center
Fri 10:52:23 PM 28.0692 -81.1628 342° North 451 519 31,000  Level Miami Center
Fri 10:53:22 PM 28.1889 -81.2072 342° North 451 519 31,000  Level Miami Center
Fri 10:54:24 PM 28.3106 -81.2519 342° North 457 526 31,000  Level Miami Center
Fri 10:55:22 PM 28.4325 -81.2947 343° North 457 526 31,000  Level Miami Center
Fri 10:55:45 PM 28.4700 -81.3103 340° North 459 528 31,000  Level Jacksonville Center
Fri 10:56:45 PM 28.6019 -81.3581 342° North 454 522 31,000  Level Jacksonville Center
Fri 10:57:45 PM 28.7275 -81.3964 345° North 454 522 31,000  Level Jacksonville Center
Fri 10:58:45 PM 28.8492 -81.4347 345° North 459 528 31,000  Level Jacksonville Center
Fri 10:59:45 PM 28.9706 -81.4733 344° North 459 528 31,000  Level Jacksonville Center
Fri 11:00:45 PM 29.0922 -81.5167 343° North 459 528 31,000  Level Jacksonville Center
Fri 11:01:45 PM 29.2158 -81.5556 345° North 459 528 31,000  Level Jacksonville Center
Fri 11:02:45 PM 29.3392 -81.5967 344° North 459 528 31,000  Level Jacksonville Center
Fri 11:03:45 PM 29.4608 -81.6381 344° North 459 528 31,000  Level Jacksonville Center
Fri 11:04:45 PM 29.5822 -81.6769 344° North 459 528 31,000  Level Jacksonville Center
Fri 11:05:45 PM 29.7058 -81.7161 345° North 459 528 31,000  Level Jacksonville Center
Fri 11:06:45 PM 29.8272 -81.7553 344° North 459 528 31,000  Level Jacksonville Center
Fri 11:07:45 PM 29.9486 -81.7947 344° North 459 528 31,000  Level Jacksonville Center
Fri 11:08:45 PM 30.0681 -81.8317 345° North 459 528 31,000  Level Jacksonville Center
Fri 11:09:45 PM 30.1894 -81.8711 344° North 459 528 31,000  Level Jacksonville Center
Fri 11:10:45 PM 30.3108 -81.9108 344° North 459 528 31,000  Level Jacksonville Center
Fri 11:11:45 PM 30.4322 -81.9506 344° North 459 528 31,000  Level Jacksonville Center
Fri 11:12:45 PM 30.5536 -81.9903 344° North 447 514 31,000  Level Jacksonville Center
Fri 11:13:45 PM 30.6644 -82.0328 342° North 447 514 31,000  Level Jacksonville Center
Fri 11:14:45 PM 30.7858 -82.0753 343° North 447 514 31,000  Level Jacksonville Center
Fri 11:15:45 PM 30.9053 -82.1153 344° North 447 514 31,000  Level Jacksonville Center
Fri 11:16:45 PM 31.0264 -82.1556 344° North 447 514 31,000  Level Jacksonville Center
Fri 11:17:45 PM 31.1478 -82.1983 343° North 447 514 31,000  Level Jacksonville Center
Fri 11:18:45 PM 31.2711 -82.2386 344° North 452 520 31,000  Level Jacksonville Center
Fri 11:19:45 PM 31.3925 -82.2817 343° North 452 520 31,000  Level Jacksonville Center
Fri 11:20:45 PM 31.5117 -82.3222 344° North 452 520 31,000  Level Jacksonville Center
Fri 11:21:45 PM 31.6331 -82.3583 346° North 447 514 31,000  Level Jacksonville Center
Fri 11:22:45 PM 31.7500 -82.3992 343° North 447 514 31,000  Level Jacksonville Center
Fri 11:24:08 PM 31.9158 -82.4558 344° North 436 502 31,000  Level Atlanta Center
Fri 11:25:08 PM 32.0353 -82.4953 344° North 441 507 31,000  Level Atlanta Center
Fri 11:26:08 PM 32.1550 -82.5375 343° North 441 507 31,000  Level Atlanta Center
Fri 11:27:08 PM 32.2722 -82.5797 343° North 441 507 31,000  Level Atlanta Center
Fri 11:28:08 PM 32.3897 -82.6172 345° North 441 507 31,000  Level Atlanta Center
Fri 11:29:08 PM 32.5111 -82.6619 343° North 447 514 31,000  Level Atlanta Center
Fri 11:30:08 PM 32.6244 -82.7044 342° North 441 507 31,000  Level Atlanta Center
Fri 11:31:08 PM 32.7417 -82.7422 345° North 441 507 31,000  Level Atlanta Center
Fri 11:32:08 PM 32.8569 -82.7828 344° North 436 502 31,000  Level Atlanta Center
Fri 11:33:08 PM 32.9742 -82.8281 342° North 436 502 31,000  Level Atlanta Center
Fri 11:34:08 PM 33.0894 -82.8661 345° North 436 502 31,000  Level Atlanta Center
Fri 11:35:08 PM 33.2044 -82.9067 344° North 436 502 31,000  Level Atlanta Center
Fri 11:36:08 PM 33.3219 -82.9475 344° North 436 502 31,000  Level Atlanta Center
Fri 11:37:08 PM 33.4392 -82.9883 344° North 441 507 31,000  Level Atlanta Center
Fri 11:38:08 PM 33.5522 -83.0292 343° North 434 499 31,000  Level Atlanta Center
Fri 11:39:08 PM 33.6672 -83.0703 343° North 434 499 31,000  Level Atlanta Center
Fri 11:40:08 PM 33.7825 -83.1117 343° North 424 488 31,000  Level Atlanta Center
Fri 11:41:08 PM 33.8975 -83.1528 343° North 424 488 31,000  Level Atlanta Center
Fri 11:42:08 PM 34.0231 -83.1992 343° North 424 488 31,000  Level Atlanta Center
Fri 11:43:08 PM 34.1381 -83.2381 344° North 424 488 31,000  Level Atlanta Center
Fri 11:44:08 PM 34.2511 -83.2797 343° North 424 488 31,000  Level Atlanta Center
Fri 11:45:08 PM 34.3639 -83.3217 343° North 424 488 31,000  Level Atlanta Center
Fri 11:46:08 PM 34.4769 -83.3633 343° North 424 488 31,000  Level Atlanta Center
Fri 11:47:08 PM 34.5919 -83.4056 343° North 422 486 31,000  Level Atlanta Center
Fri 11:48:08 PM 34.6903 -83.4450 342° North 422 486 31,000  Level Atlanta Center
Fri 11:49:08 PM 34.8031 -83.4872 343° North 416 479 31,000  Level Atlanta Center
Fri 11:50:08 PM 34.9161 -83.5272 344° North 416 479 31,000  Level Atlanta Center
Fri 11:51:08 PM 35.0289 -83.5694 343° North 421 484 31,000  Level Atlanta Center
Fri 11:52:08 PM 35.1417 -83.6094 344° North 421 484 31,000  Level Atlanta Center
Fri 11:53:08 PM 35.2567 -83.6547 342° North 421 484 31,000  Level Atlanta Center
Fri 11:54:08 PM 35.3694 -83.6950 344° North 421 484 31,000  Level Atlanta Center
Fri 11:55:08 PM 35.4842 -83.7378 343° North 421 484 31,000  Level Atlanta Center
Fri 11:56:08 PM 35.5992 -83.7808 343° North 421 484 31,000  Level Atlanta Center
Fri 11:57:08 PM 35.7139 -83.8239 343° North 426 490 31,000  Level Atlanta Center
Fri 11:58:08 PM 35.8267 -83.8672 343° North 421 484 31,000 -370 Level Atlanta Center
Fri 11:59:50 PM 36.0247 -83.9656 338° Northwest 427 491 30,000 -368 Descending Indianapolis Center
Sat 12:00:51 AM 36.1297 -84.0289 334° Northwest 424 488 30,000  Level Indianapolis Center
Sat 12:01:52 AM 36.2339 -84.0919 334° Northwest 420 483 30,000  Level Indianapolis Center
Sat 12:02:53 AM 36.3403 -84.1544 335° Northwest 422 486 30,000  Level Indianapolis Center
Sat 12:03:54 AM 36.4461 -84.2178 334° Northwest 423 487 30,000  Level Indianapolis Center
Sat 12:04:54 AM 36.5556 -84.2839 334° Northwest 424 488 30,000  Level Indianapolis Center
Sat 12:05:55 AM 36.6614 -84.3469 334° Northwest 422 486 30,000  Level Indianapolis Center
Sat 12:06:56 AM 36.7678 -84.4125 334° Northwest 422 486 30,000  Level Indianapolis Center
Sat 12:07:57 AM 36.8736 -84.4764 334° Northwest 422 486 30,000  Level Indianapolis Center
Sat 12:08:58 AM 36.9733 -84.5372 334° Northwest 423 487 30,000 -893 Level Indianapolis Center
Sat 12:09:58 AM 37.0867 -84.6064 334° Northwest 424 488 28,200 -2,975 Descending Indianapolis Center
Sat 12:10:59 AM 37.1931 -84.6711 334° Northwest 423 487 24,000 -3,689 Descending Indianapolis Center
Sat 12:12:00 AM 37.2989 -84.7350 334° Northwest 421 484 20,700 -3,000 Descending Indianapolis Center
Sat 12:13:01 AM 37.4003 -84.7972 334° Northwest 407 468 17,900 -2,826 Descending Indianapolis Center
Sat 12:14:01 AM 37.4972 -84.8567 334° Northwest 389 448 15,000 -2,727 Descending Indianapolis Center
Sat 12:15:02 AM 37.5903 -84.9156 333° Northwest 377 434 12,400 -2,262 Descending Indianapolis Center
Sat 12:16:03 AM 37.6867 -84.9989 326° Northwest 366 421 10,400 -1,190 Descending Indianapolis Center
Sat 12:17:03 AM 37.7553 -85.0928 313° West 363 418 10,000 -248 Descending Indianapolis Center
Sat 12:18:04 AM 37.7825 -85.1919 289° West 303 349 9,900 -689 Descending Indianapolis Center
Sat 12:19:05 AM 37.7858 -85.2911 272° West 282 325 8,600 -1,587 Descending Indianapolis Center
Sat 12:20:05 AM 37.8172 -85.3769 295° West 271 312 6,700 -1,934 Descending Indianapolis Center
Sat 12:21:06 AM 37.8553 -85.4447 305° West 267 307 4,700 -1,339 Descending Indianapolis Center
Sat 12:22:06 AM 37.8942 -85.5142 305° West 264 304 4,000 -468 Descending Indianapolis Center
Sat 12:24:44 AM 38.0183 -85.6642 316° Northwest 315 362 3,000 -356 Descending Indianapolis Center
Sat 12:25:45 AM 38.0647 -85.6906 336° Northwest 183 211 2,700 -704 Descending Indianapolis Center
Sat 12:27:00 AM 38.1741 -85.7365 345° North  Level Estimated
Sat 12:28:00 AM 38.1667 -85.7167 345° North 137 158 700  Level Louisville TRACON
Sat 12:29:00 AM 38.1667 -85.7333 208° Southwest  Level FlightAware Approximate

Login

Don't have an account? Register now (free) for customized features, flight alerts, and more!